Map

Track Data

SID SEASON NUMBER BASIN SUBBASIN NAME ISO_TIME NATURE LAT LON WMO_WIND WMO_PRES WMO_AGENCY TRACK_TYPE DIST2LAND LANDFALL IFLAG USA_AGENCY USA_ATCF_ID USA_LAT USA_LON USA_RECORD USA_STATUS USA_WIND USA_PRES USA_SSHS USA_R34_NE USA_R34_SE USA_R34_SW USA_R34_NW USA_R50_NE USA_R50_SE USA_R50_SW USA_R50_NW USA_R64_NE USA_R64_SE USA_R64_SW USA_R64_NW USA_POCI USA_ROCI USA_RMW USA_EYE TOKYO_LAT TOKYO_LON TOKYO_GRADE TOKYO_WIND TOKYO_PRES TOKYO_R50_DIR TOKYO_R50_LONG TOKYO_R50_SHORT TOKYO_R30_DIR TOKYO_R30_LONG TOKYO_R30_SHORT TOKYO_LAND CMA_LAT CMA_LON CMA_CAT CMA_WIND CMA_PRES HKO_LAT HKO_LON HKO_CAT HKO_WIND HKO_PRES NEWDELHI_LAT NEWDELHI_LON NEWDELHI_GRADE NEWDELHI_WIND NEWDELHI_PRES NEWDELHI_CI NEWDELHI_DP NEWDELHI_POCI REUNION_LAT REUNION_LON REUNION_TYPE REUNION_WIND REUNION_PRES REUNION_TNUM REUNION_CI REUNION_RMW REUNION_R34_NE REUNION_R34_SE REUNION_R34_SW REUNION_R34_NW REUNION_R50_NE REUNION_R50_SE REUNION_R50_SW REUNION_R50_NW REUNION_R64_NE REUNION_R64_SE REUNION_R64_SW REUNION_R64_NW BOM_LAT BOM_LON BOM_TYPE BOM_WIND BOM_PRES BOM_TNUM BOM_CI BOM_RMW BOM_R34_NE BOM_R34_SE BOM_R34_SW BOM_R34_NW BOM_R50_NE BOM_R50_SE BOM_R50_SW BOM_R50_NW BOM_R64_NE BOM_R64_SE BOM_R64_SW BOM_R64_NW BOM_ROCI BOM_POCI BOM_EYE BOM_POS_METHOD BOM_PRES_METHOD NADI_LAT NADI_LON NADI_CAT NADI_WIND NADI_PRES WELLINGTON_LAT WELLINGTON_LON WELLINGTON_WIND WELLINGTON_PRES DS824_LAT DS824_LON DS824_STAGE DS824_WIND DS824_PRES TD9636_LAT TD9636_LON TD9636_STAGE TD9636_WIND TD9636_PRES TD9635_LAT TD9635_LON TD9635_WIND TD9635_PRES TD9635_ROCI NEUMANN_LAT NEUMANN_LON NEUMANN_CLASS NEUMANN_WIND NEUMANN_PRES MLC_LAT MLC_LON MLC_CLASS MLC_WIND MLC_PRES USA_GUST BOM_GUST BOM_GUST_PER REUNION_GUST REUNION_GUST_PER USA_SEAHGT USA_SEARAD_NE USA_SEARAD_SE USA_SEARAD_SW USA_SEARAD_NW STORM_SPEED STORM_DIR
1907218N16126 1907 36 WP MM NOT_NAMED 1907-08-05 16:00:00 NR 16.1000 125.800 main 284 273 __________O___ -1 16.1000 125.800 7 5 278
1907218N16126 1907 36 WP MM NOT_NAMED 1907-08-05 18:00:00 NR 16.1258 125.617 main 273 268 __________P___ -1 16.1258 125.617 7 5 278
1907218N16126 1907 36 WP MM NOT_NAMED 1907-08-05 21:00:00 NR 16.1673 125.330 main 268 257 __________P___ -1 16.1673 125.330 7 6 279
1907218N16126 1907 36 WP MM NOT_NAMED 1907-08-06 00:00:00 NR 16.2161 125.010 main 257 233 __________P___ -1 16.2161 125.010 7 7 279
1907218N16126 1907 36 WP MM NOT_NAMED 1907-08-06 03:00:00 NR 16.2765 124.639 main 233 223 __________P___ -1 16.2765 124.639 7 7 280
1907218N16126 1907 36 WP MM NOT_NAMED 1907-08-06 04:00:00 NR 16.3000 124.500 main 223 189 __________O___ -1 16.3000 124.500 7 9 280
1907218N16126 1907 36 WP MM NOT_NAMED 1907-08-06 06:00:00 NR 16.3525 124.198 main 189 139 __________P___ -1 16.3525 124.198 7 10 280
1907218N16126 1907 36 WP MM NOT_NAMED 1907-08-06 09:00:00 NR 16.4439 123.688 main 139 78 __________P___ -1 16.4439 123.688 7 11 281
1907218N16126 1907 36 WP MM NOT_NAMED 1907-08-06 12:00:00 NR 16.5475 123.121 main 78 15 __________P___ -1 16.5475 123.121 7 12 281
1907218N16126 1907 36 WP MM NOT_NAMED 1907-08-06 15:00:00 NR 16.6607 122.511 main 15 0 __________P___ -1 16.6607 122.511 7 12 281
1907218N16126 1907 36 WP MM NOT_NAMED 1907-08-06 16:00:00 NR 16.7000 122.300 main 0 0 __________O___ -1 16.7000 122.300 7 13 281
1907218N16126 1907 36 WP MM NOT_NAMED 1907-08-06 18:00:00 NR 16.7858 121.863 main 0 0 __________P___ -1 16.7858 121.863 7 13 282
1907218N16126 1907 36 WP MM NOT_NAMED 1907-08-06 21:00:00 NR 16.9208 121.176 main 0 0 __________P___ -1 16.9208 121.176 7 14 281
1907218N16126 1907 36 WP MM NOT_NAMED 1907-08-07 00:00:00 NR 17.0521 120.480 main 0 10 __________P___ -1 17.0521 120.480 7 13 281
1907218N16126 1907 36 WP MM NOT_NAMED 1907-08-07 03:00:00 NR 17.1673 119.811 main 63 63 __________P___ -1 17.1673 119.811 7 13 280
1907218N16126 1907 36 WP MM NOT_NAMED 1907-08-07 04:00:00 NR 17.2000 119.600 main 84 84 __________O___ -1 17.2000 119.600 3 12 278
1907218N16126 1907 36 WP MM NOT_NAMED 1907-08-07 06:00:00 NR 17.2498 119.210 main 119 121 __________P___ -1 17.2498 119.210 3 11 277
1907218N16126 1907 36 WP MM NOT_NAMED 1907-08-07 09:00:00 NR 17.3061 118.663 main 161 169 __________P___ -1 17.3061 118.663 3 10 276
1907218N16126 1907 36 WP MM NOT_NAMED 1907-08-07 12:00:00 NR 17.3487 118.151 main 203 218 __________P___ -1 17.3487 118.151 3 10 275
1907218N16126 1907 36 WP MM NOT_NAMED 1907-08-07 15:00:00 NR 17.3868 117.661 main 255 264 __________P___ -1 17.3868 117.661 3 9 275
1907218N16126 1907 36 WP MM NOT_NAMED 1907-08-07 16:00:00 NR 17.4000 117.500 main 274 274 __________O___ -1 17.4000 117.500 4 9 275
1907218N16126 1907 36 WP MM NOT_NAMED 1907-08-07 18:00:00 NR 17.4303 117.174 main 302 312 __________P___ -1 17.4303 117.174 4 9 276
1907218N16126 1907 36 WP MM NOT_NAMED 1907-08-07 21:00:00 NR 17.4760 116.699 main 356 356 __________P___ -1 17.4760 116.699 4 9 276
1907218N16126 1907 36 WP MM NOT_NAMED 1907-08-08 00:00:00 NR 17.5248 116.230 main 405 405 __________P___ -1 17.5248 116.230 4 9 277
1907218N16126 1907 36 WP MM NOT_NAMED 1907-08-08 03:00:00 NR 17.5798 115.759 main 449 459 __________P___ -1 17.5798 115.759 4 9 277
1907218N16126 1907 36 WP MM NOT_NAMED 1907-08-08 04:00:00 NR 17.6000 115.600 main 469 469 __________O___ -1 17.6000 115.600 4 9 278
1907218N16126 1907 36 WP MM NOT_NAMED 1907-08-08 06:00:00 NR 17.6442 115.267 main 500 453 __________P___ -1 17.6442 115.267 4 10 278
1907218N16126 1907 36 WP MM NOT_NAMED 1907-08-08 09:00:00 NR 17.7169 114.761 main 453 401 __________P___ -1 17.7169 114.761 4 10 279
1907218N16126 1907 36 WP MM NOT_NAMED 1907-08-08 12:00:00 NR 17.7944 114.256 main 401 350 __________P___ -1 17.7944 114.256 4 10 279
1907218N16126 1907 36 WP MM NOT_NAMED 1907-08-08 15:00:00 NR 17.8737 113.761 main 350 333 __________P___ -1 17.8737 113.761 4 10 280
1907218N16126 1907 36 WP MM NOT_NAMED 1907-08-08 16:00:00 NR 17.9000 113.600 main 333 307 __________O___ -1 17.9000 113.600 4 9 279
1907218N16126 1907 36 WP MM NOT_NAMED 1907-08-08 18:00:00 NR 17.9417 113.291 main 307 257 __________P___ -1 17.9417 113.291 4 9 278
1907218N16126 1907 36 WP MM NOT_NAMED 1907-08-08 21:00:00 NR 18.0044 112.840 main 257 214 __________P___ -1 18.0044 112.840 4 9 279
1907218N16126 1907 36 WP MM NOT_NAMED 1907-08-09 00:00:00 NR 18.0757 112.397 main 214 171 __________P___ -1 18.0757 112.397 4 9 281
1907218N16126 1907 36 WP MM NOT_NAMED 1907-08-09 03:00:00 NR 18.1647 111.951 main 171 152 __________P___ -1 18.1647 111.951 4 9 282
1907218N16126 1907 36 WP MM NOT_NAMED 1907-08-09 04:00:00 NR 18.2000 111.800 main 152 119 __________O___ -1 18.2000 111.800 4 9 285
1907218N16126 1907 36 WP MM NOT_NAMED 1907-08-09 06:00:00 NR 18.2829 111.479 main 119 69 __________P___ -1 18.2829 111.479 4 10 286
1907218N16126 1907 36 WP MM NOT_NAMED 1907-08-09 09:00:00 NR 18.4261 110.990 main 69 15 __________P___ -1 18.4261 110.990 4 10 288
1907218N16126 1907 36 WP MM NOT_NAMED 1907-08-09 12:00:00 NR 18.5838 110.507 main 15 0 __________P___ -1 18.5838 110.507 4 10 290
1907218N16126 1907 36 WP MM NOT_NAMED 1907-08-09 15:00:00 NR 18.7463 110.046 main 0 0 __________P___ -1 18.7463 110.046 4 9 291
1907218N16126 1907 36 WP MM NOT_NAMED 1907-08-09 16:00:00 NR 18.8000 109.900 main 0 0 __________O___ -1 18.8000 109.900 4 9 292
1907218N16126 1907 36 WP MM NOT_NAMED 1907-08-09 18:00:00 NR 18.9051 109.621 main 0 0 __________P___ -1 18.9051 109.621 4 8 292
1907218N16126 1907 36 WP MM NOT_NAMED 1907-08-09 21:00:00 NR 19.0578 109.232 main 0 0 __________P___ -1 19.0578 109.232 4 8 293
1907218N16126 1907 36 WP MM NOT_NAMED 1907-08-10 00:00:00 NR 19.2062 108.867 main 0 0 __________P___ -1 19.2062 108.867 4 7 294
1907218N16126 1907 36 WP MM NOT_NAMED 1907-08-10 03:00:00 NR 19.3518 108.516 main 15 15 __________P___ -1 19.3518 108.516 4 7 294
1907218N16126 1907 36 WP MM NOT_NAMED 1907-08-10 04:00:00 NR 19.4000 108.400 main 23 __________O___ -1 19.4000 108.400 4 7 294

Digital Typhoon Data and Search

About IBTrACS Database

This database is a web-friendly format of International Best Track Archive for Climate Stewardship (IBTrACS), a global best track data archive curated by NOAA dating back to 1842.

Updated: 2021-12-03